Souda — SVBH5 — position and weather

sailwx.info

Track history (hours):
 
Tides and Currents Weather Stations Pressure Air Temp Water Temp Dewpoint Dewpoint Depression Visibility Wind Speed Wind Dir Waves Ship Positions

Souda

Last reported at 2017-Jan-20 03:34 UTC. Time now 2017-Jan-20 18:14 UTC.
Position N 37°55' E 023°06'.

Length 88 m; draft 4.8 m.

Type: Tanker. MMSI: 241109000.

Date/timePositionNaut miles runAvg speedWind from/ knotsBaromVisibWave heightAir tempDewpointWater temp
2017-Jan-20 03:34N 37°55' E 023°06'0 0.5
2017-Jan-20 02:32N 37°55' E 023°06'0 0.1
2017-Jan-20 01:23N 37°55' E 023°06'0 0.0
2017-Jan-20 00:32N 37°55' E 023°06'0 0.0
2017-Jan-19 23:27N 37°55' E 023°06'0 0.0
2017-Jan-19 22:33N 37°55' E 023°06'0 0.0
2017-Jan-19 21:29N 37°55' E 023°06'0 0.0
2017-Jan-19 20:29N 37°55' E 023°06'0 0.0
2017-Jan-19 19:20N 37°55' E 023°06'0 0.0
2017-Jan-19 18:32N 37°55' E 023°06'0 0.0
2017-Jan-19 17:30N 37°55' E 023°06'0 0.0
2017-Jan-19 16:20N 37°55' E 023°06'0 0.0
2017-Jan-19 15:32N 37°55' E 023°06'0 0.0
2017-Jan-19 14:32N 37°55' E 023°06'0 0.0
2017-Jan-19 13:32N 37°55' E 023°06'0 0.0
2017-Jan-19 12:29N 37°55' E 023°06'0 0.0
2017-Jan-19 11:32N 37°55' E 023°06'0 0.0
2017-Jan-19 10:23N 37°55' E 023°06'0 0.0
2017-Jan-19 09:32N 37°55' E 023°06'3 2.6
2017-Jan-19 08:33N 37°53' E 023°09'9 9.2
2017-Jan-19 07:34N 37°51' E 023°20'9 9.0
2017-Jan-19 06:33N 37°50' E 023°32'8 7.9
2017-Jan-19 05:33N 37°58' E 023°35'0 0.0
2017-Jan-19 04:32N 37°58' E 023°35'0 0.0
2017-Jan-19 03:32N 37°58' E 023°35'0 0.0
2017-Jan-19 02:31N 37°58' E 023°35'0 0.0
2017-Jan-19 01:32N 37°58' E 023°35'0 0.0
2017-Jan-19 00:32N 37°58' E 023°35'0 0.0
2017-Jan-18 23:32N 37°58' E 023°35'0 0.0
2017-Jan-18 22:29N 37°58' E 023°35'0 0.0
2017-Jan-18 21:29N 37°58' E 023°35'0 0.0
2017-Jan-18 20:31N 37°58' E 023°35'0 0.0
2017-Jan-18 19:32N 37°58' E 023°35'0 0.0
2017-Jan-18 18:32N 37°58' E 023°35'0 0.0
2017-Jan-18 17:31N 37°58' E 023°35'0 0.0
2017-Jan-18 16:32N 37°58' E 023°35'0 0.0
2017-Jan-18 15:32N 37°58' E 023°35'0 0.0
2017-Jan-18 14:31N 37°58' E 023°35'0 0.0
2017-Jan-18 13:23N 37°58' E 023°35'0 0.0
2017-Jan-18 12:32N 37°58' E 023°35'0 0.0
2017-Jan-18 11:28N 37°58' E 023°35'0 0.0
2017-Jan-18 10:25N 37°58' E 023°35'0 0.0
2017-Jan-18 09:31N 37°58' E 023°35'0 0.0
2017-Jan-18 08:31N 37°58' E 023°35'0 0.0
2017-Jan-18 07:31N 37°58' E 023°35'0 0.0
2017-Jan-18 06:31N 37°58' E 023°35'0 0.0
2017-Jan-18 05:31N 37°58' E 023°35'0 0.0
2017-Jan-18 04:31N 37°58' E 023°35'0 0.0
2017-Jan-18 03:31N 37°58' E 023°35'0 0.0
2017-Jan-18 02:31N 37°58' E 023°35'0 0.0
2017-Jan-18 01:31N 37°58' E 023°35'0 0.0
2017-Jan-18 00:31N 37°58' E 023°35'0 0.0
2017-Jan-17 23:31N 37°58' E 023°35'0 0.0
2017-Jan-17 22:31N 37°58' E 023°35'0 0.0
2017-Jan-17 21:31N 37°58' E 023°35'0 0.0
2017-Jan-17 20:31N 37°58' E 023°35'0 0.0
2017-Jan-17 19:31N 37°58' E 023°35'0 0.0
2017-Jan-17 18:28N 37°58' E 023°35'0 0.0
2017-Jan-17 17:31N 37°58' E 023°35'0 0.0
2017-Jan-17 16:31N 37°58' E 023°35'0 0.0
2017-Jan-17 15:31N 37°58' E 023°35'0 0.0
2017-Jan-17 14:31N 37°58' E 023°35'0 0.0
2017-Jan-17 13:31N 37°58' E 023°35'0 0.0
2017-Jan-17 12:31N 37°58' E 023°35'0 0.0
2017-Jan-17 11:28N 37°58' E 023°35'0 0.0
2017-Jan-17 10:31N 37°58' E 023°35'0 0.0
2017-Jan-17 09:33N 37°58' E 023°35'3 2.7
2017-Jan-17 08:34N 37°55' E 023°35'6 6.2
2017-Jan-17 07:33N 37°50' E 023°40'  
Track history (hours):
 
Tides and Currents Weather Stations Pressure Air Temp Water Temp Dewpoint Dewpoint Depression Visibility Wind Speed Wind Dir Waves Ship Positions

Souda

Last reported at 2017-Jan-20 03:34 UTC. Time now 2017-Jan-20 18:14 UTC.
Position N 37°55' E 023°06'.

Length 88 m; draft 4.8 m.

Type: Tanker. MMSI: 241109000.

Date/timePositionNaut miles runAvg speedWind from/ knotsBaromVisibWave heightAir tempDewpointWater temp
2017-Jan-20 03:34N 37°55' E 023°06'0 0.5
2017-Jan-20 02:32N 37°55' E 023°06'0 0.1
2017-Jan-20 01:23N 37°55' E 023°06'0 0.0
2017-Jan-20 00:32N 37°55' E 023°06'0 0.0
2017-Jan-19 23:27N 37°55' E 023°06'0 0.0
2017-Jan-19 22:33N 37°55' E 023°06'0 0.0
2017-Jan-19 21:29N 37°55' E 023°06'0 0.0
2017-Jan-19 20:29N 37°55' E 023°06'0 0.0
2017-Jan-19 19:20N 37°55' E 023°06'0 0.0
2017-Jan-19 18:32N 37°55' E 023°06'0 0.0
2017-Jan-19 17:30N 37°55' E 023°06'0 0.0
2017-Jan-19 16:20N 37°55' E 023°06'0 0.0
2017-Jan-19 15:32N 37°55' E 023°06'0 0.0
2017-Jan-19 14:32N 37°55' E 023°06'0 0.0
2017-Jan-19 13:32N 37°55' E 023°06'0 0.0
2017-Jan-19 12:29N 37°55' E 023°06'0 0.0
2017-Jan-19 11:32N 37°55' E 023°06'0 0.0
2017-Jan-19 10:23N 37°55' E 023°06'0 0.0
2017-Jan-19 09:32N 37°55' E 023°06'3 2.6
2017-Jan-19 08:33N 37°53' E 023°09'9 9.2
2017-Jan-19 07:34N 37°51' E 023°20'9 9.0
2017-Jan-19 06:33N 37°50' E 023°32'8 7.9
2017-Jan-19 05:33N 37°58' E 023°35'0 0.0
2017-Jan-19 04:32N 37°58' E 023°35'0 0.0
2017-Jan-19 03:32N 37°58' E 023°35'0 0.0
2017-Jan-19 02:31N 37°58' E 023°35'0 0.0
2017-Jan-19 01:32N 37°58' E 023°35'0 0.0
2017-Jan-19 00:32N 37°58' E 023°35'0 0.0
2017-Jan-18 23:32N 37°58' E 023°35'0 0.0
2017-Jan-18 22:29N 37°58' E 023°35'0 0.0
2017-Jan-18 21:29N 37°58' E 023°35'0 0.0
2017-Jan-18 20:31N 37°58' E 023°35'0 0.0
2017-Jan-18 19:32N 37°58' E 023°35'0 0.0
2017-Jan-18 18:32N 37°58' E 023°35'0 0.0
2017-Jan-18 17:31N 37°58' E 023°35'0 0.0
2017-Jan-18 16:32N 37°58' E 023°35'0 0.0
2017-Jan-18 15:32N 37°58' E 023°35'0 0.0
2017-Jan-18 14:31N 37°58' E 023°35'0 0.0
2017-Jan-18 13:23N 37°58' E 023°35'0 0.0
2017-Jan-18 12:32N 37°58' E 023°35'0 0.0
2017-Jan-18 11:28N 37°58' E 023°35'0 0.0
2017-Jan-18 10:25N 37°58' E 023°35'0 0.0
2017-Jan-18 09:31N 37°58' E 023°35'0 0.0
2017-Jan-18 08:31N 37°58' E 023°35'0 0.0
2017-Jan-18 07:31N 37°58' E 023°35'0 0.0
2017-Jan-18 06:31N 37°58' E 023°35'0 0.0
2017-Jan-18 05:31N 37°58' E 023°35'0 0.0
2017-Jan-18 04:31N 37°58' E 023°35'0 0.0
2017-Jan-18 03:31N 37°58' E 023°35'0 0.0
2017-Jan-18 02:31N 37°58' E 023°35'0 0.0
2017-Jan-18 01:31N 37°58' E 023°35'0 0.0
2017-Jan-18 00:31N 37°58' E 023°35'0 0.0
2017-Jan-17 23:31N 37°58' E 023°35'0 0.0
2017-Jan-17 22:31N 37°58' E 023°35'0 0.0
2017-Jan-17 21:31N 37°58' E 023°35'0 0.0
2017-Jan-17 20:31N 37°58' E 023°35'0 0.0
2017-Jan-17 19:31N 37°58' E 023°35'0 0.0
2017-Jan-17 18:28N 37°58' E 023°35'0 0.0
2017-Jan-17 17:31N 37°58' E 023°35'0 0.0
2017-Jan-17 16:31N 37°58' E 023°35'0 0.0
2017-Jan-17 15:31N 37°58' E 023°35'0 0.0
2017-Jan-17 14:31N 37°58' E 023°35'0 0.0
2017-Jan-17 13:31N 37°58' E 023°35'0 0.0
2017-Jan-17 12:31N 37°58' E 023°35'0 0.0
2017-Jan-17 11:28N 37°58' E 023°35'0 0.0
2017-Jan-17 10:31N 37°58' E 023°35'0 0.0
2017-Jan-17 09:33N 37°58' E 023°35'3 2.7
2017-Jan-17 08:34N 37°55' E 023°35'6 6.2
2017-Jan-17 07:33N 37°50' E 023°40'  

Dump ship's entire track history